Terminal Aerodrome Forecast
Issued by NWS

Home | Current Version | Previous Version | Text Only | Print | Product List | Glossary On
Versions: 1 2 3 4 5 6 7 8 9 10 11 12 13
808
FTUS43 KGRB 242006 AAA
TAFATW
TAF AMD
KATW 242006Z 2420/2518 21007KT P6SM VCSH BKN050
      TEMPO 2420/2423 3SM SHRA BKN025
     FM250200 24004KT P6SM SCT045 BKN080
     FM250800 35005KT P6SM SCT006
      TEMPO 2508/2512 3SM BR BKN007
     FM251400 09009G15KT P6SM SCT022 BKN250=

USA.gov is the U.S. government's official web portal to all federal, state and local government web resources and services.